sensor_id;sensor_type;location;lat;lon;timestamp;pressure;altitude;pressure_sealevel;temperature;humidity
5298;BME280;14738;42.668;23.250;2024-02-26T00:00:24;48406.19;;;-141.90;100.00
5298;BME280;14738;42.668;23.250;2024-02-26T00:02:50;48358.53;;;-141.90;100.00
5298;BME280;14738;42.668;23.250;2024-02-26T00:05:17;48412.13;;;-141.90;100.00
5298;BME280;14738;42.668;23.250;2024-02-26T00:07:42;48410.16;;;-141.90;100.00
5298;BME280;14738;42.668;23.250;2024-02-26T00:10:11;48384.34;;;-141.90;100.00
5298;BME280;14738;42.668;23.250;2024-02-26T00:12:42;48426.03;;;-141.90;100.00
5298;BME280;14738;42.668;23.250;2024-02-26T00:15:10;48406.19;;;-141.90;100.00
5298;BME280;14738;42.668;23.250;2024-02-26T00:17:38;48374.41;;;-141.90;100.00
5298;BME280;14738;42.668;23.250;2024-02-26T00:20:04;48426.03;;;-141.90;100.00
5298;BME280;14738;42.668;23.250;2024-02-26T00:22:42;48406.19;;;-141.90;100.00
5298;BME280;14738;42.668;23.250;2024-02-26T00:25:08;48449.84;;;-141.90;100.00
5298;BME280;14738;42.668;23.250;2024-02-26T00:27:40;48414.13;;;-141.90;100.00
5298;BME280;14738;42.668;23.250;2024-02-26T00:30:10;48422.06;;;-141.90;100.00
5298;BME280;14738;42.668;23.250;2024-02-26T00:32:35;48422.06;;;-141.90;100.00
5298;BME280;14738;42.668;23.250;2024-02-26T00:35:03;48360.53;;;-141.90;100.00
5298;BME280;14738;42.668;23.250;2024-02-26T00:37:29;48443.91;;;-141.90;100.00
5298;BME280;14738;42.668;23.250;2024-02-26T00:40:00;48424.06;;;-141.90;100.00
5298;BME280;14738;42.668;23.250;2024-02-26T00:42:31;48451.84;;;-141.90;100.00
5298;BME280;14738;42.668;23.250;2024-02-26T00:44:59;48414.13;;;-141.90;100.00
5298;BME280;14738;42.668;23.250;2024-02-26T00:47:25;48433.97;;;-141.90;100.00
5298;BME280;14738;42.668;23.250;2024-02-26T00:49:56;48430.00;;;-141.90;100.00
5298;BME280;14738;42.668;23.250;2024-02-26T00:52:24;48422.06;;;-141.90;100.00
5298;BME280;14738;42.668;23.250;2024-02-26T00:54:50;48410.16;;;-141.90;100.00
5298;BME280;14738;42.668;23.250;2024-02-26T00:57:16;48428.03;;;-141.90;100.00
5298;BME280;14738;42.668;23.250;2024-02-26T00:59:44;48441.91;;;-141.90;100.00
5298;BME280;14738;42.668;23.250;2024-02-26T01:02:17;48433.97;;;-141.90;100.00
5298;BME280;14738;42.668;23.250;2024-02-26T01:04:45;48445.88;;;-141.90;100.00
5298;BME280;14738;42.668;23.250;2024-02-26T01:07:10;48424.06;;;-141.90;100.00
5298;BME280;14738;42.668;23.250;2024-02-26T01:09:38;48437.94;;;-141.90;100.00
5298;BME280;14738;42.668;23.250;2024-02-26T01:12:08;48418.09;;;-141.90;100.00
5298;BME280;14738;42.668;23.250;2024-02-26T01:14:34;48408.16;;;-141.90;100.00
5298;BME280;14738;42.668;23.250;2024-02-26T01:17:02;48414.13;;;-141.90;100.00
5298;BME280;14738;42.668;23.250;2024-02-26T01:19:28;48362.50;;;-141.90;100.00
5298;BME280;14738;42.668;23.250;2024-02-26T01:21:56;48453.81;;;-141.90;100.00
5298;BME280;14738;42.668;23.250;2024-02-26T01:24:22;48422.06;;;-141.90;100.00
5298;BME280;14738;42.668;23.250;2024-02-26T01:26:47;48408.16;;;-141.90;100.00
5298;BME280;14738;42.668;23.250;2024-02-26T01:29:16;48390.31;;;-141.90;100.00
5298;BME280;14738;42.668;23.250;2024-02-26T01:31:59;48420.09;;;-141.90;100.00
5298;BME280;14738;42.668;23.250;2024-02-26T01:34:28;48453.81;;;-141.90;100.00
5298;BME280;14738;42.668;23.250;2024-02-26T01:37:02;48424.06;;;-141.90;100.00
5298;BME280;14738;42.668;23.250;2024-02-26T01:39:28;48408.16;;;-141.90;100.00
5298;BME280;14738;42.668;23.250;2024-02-26T01:41:57;48424.06;;;-141.90;100.00
5298;BME280;14738;42.668;23.250;2024-02-26T01:44:23;48414.13;;;-141.90;100.00
5298;BME280;14738;42.668;23.250;2024-02-26T01:46:49;48398.25;;;-141.90;100.00
5298;BME280;14738;42.668;23.250;2024-02-26T01:49:17;48364.50;;;-141.90;100.00
5298;BME280;14738;42.668;23.250;2024-02-26T01:51:45;48410.16;;;-141.90;100.00
5298;BME280;14738;42.668;23.250;2024-02-26T01:54:11;48433.97;;;-141.90;100.00
5298;BME280;14738;42.668;23.250;2024-02-26T01:56:38;48426.03;;;-141.90;100.00
5298;BME280;14738;42.668;23.250;2024-02-26T01:59:05;48420.09;;;-141.90;100.00
5298;BME280;14738;42.668;23.250;2024-02-26T02:01:36;48374.41;;;-141.90;100.00
5298;BME280;14738;42.668;23.250;2024-02-26T02:04:06;48402.22;;;-141.90;100.00
5298;BME280;14738;42.668;23.250;2024-02-26T02:06:37;48410.16;;;-141.90;100.00
5298;BME280;14738;42.668;23.250;2024-02-26T02:09:03;48410.16;;;-141.90;100.00
5298;BME280;14738;42.668;23.250;2024-02-26T02:11:35;48382.34;;;-141.90;100.00
5298;BME280;14738;42.668;23.250;2024-02-26T02:14:01;48432.00;;;-141.90;100.00
5298;BME280;14738;42.668;23.250;2024-02-26T02:16:27;48420.09;;;-141.90;100.00
5298;BME280;14738;42.668;23.250;2024-02-26T02:18:55;48469.72;;;-141.90;100.00
5298;BME280;14738;42.668;23.250;2024-02-26T02:21:33;48390.31;;;-141.90;100.00
5298;BME280;14738;42.668;23.250;2024-02-26T02:23:58;48398.25;;;-141.90;100.00
5298;BME280;14738;42.668;23.250;2024-02-26T02:26:31;48453.81;;;-141.90;100.00
5298;BME280;14738;42.668;23.250;2024-02-26T02:28:58;48449.84;;;-141.90;100.00
5298;BME280;14738;42.668;23.250;2024-02-26T02:31:24;48392.28;;;-141.90;100.00
5298;BME280;14738;42.668;23.250;2024-02-26T02:33:52;48430.00;;;-141.90;100.00
5298;BME280;14738;42.668;23.250;2024-02-26T02:36:18;48430.00;;;-141.90;100.00
5298;BME280;14738;42.668;23.250;2024-02-26T02:38:51;48430.00;;;-141.90;100.00
5298;BME280;14738;42.668;23.250;2024-02-26T02:41:20;48453.81;;;-141.90;100.00
5298;BME280;14738;42.668;23.250;2024-02-26T02:43:48;48394.28;;;-141.90;100.00
5298;BME280;14738;42.668;23.250;2024-02-26T02:46:14;48424.06;;;-141.90;100.00
5298;BME280;14738;42.668;23.250;2024-02-26T02:48:44;48426.03;;;-141.90;100.00
5298;BME280;14738;42.668;23.250;2024-02-26T02:51:12;48358.53;;;-141.90;100.00
5298;BME280;14738;42.668;23.250;2024-02-26T02:53:37;48390.31;;;-141.90;100.00
5298;BME280;14738;42.668;23.250;2024-02-26T02:56:06;48432.00;;;-141.90;100.00
5298;BME280;14738;42.668;23.250;2024-02-26T02:58:34;48414.13;;;-141.90;100.00
5298;BME280;14738;42.668;23.250;2024-02-26T03:01:03;48408.16;;;-141.90;100.00
5298;BME280;14738;42.668;23.250;2024-02-26T03:03:28;48433.97;;;-141.90;100.00
5298;BME280;14738;42.668;23.250;2024-02-26T03:06:00;48432.00;;;-141.90;100.00
5298;BME280;14738;42.668;23.250;2024-02-26T03:08:25;48412.13;;;-141.90;100.00
5298;BME280;14738;42.668;23.250;2024-02-26T03:10:51;48453.81;;;-141.90;100.00
5298;BME280;14738;42.668;23.250;2024-02-26T03:13:19;48366.47;;;-141.90;100.00
5298;BME280;14738;42.668;23.250;2024-02-26T03:15:45;48418.09;;;-141.90;100.00
5298;BME280;14738;42.668;23.250;2024-02-26T03:18:17;48437.94;;;-141.90;100.00
5298;BME280;14738;42.668;23.250;2024-02-26T03:20:49;48414.13;;;-141.90;100.00
5298;BME280;14738;42.668;23.250;2024-02-26T03:23:20;48449.84;;;-141.90;100.00
5298;BME280;14738;42.668;23.250;2024-02-26T03:25:46;48420.09;;;-141.90;100.00
5298;BME280;14738;42.668;23.250;2024-02-26T03:31:06;48418.09;;;-141.90;100.00
5298;BME280;14738;42.668;23.250;2024-02-26T03:33:48;48422.06;;;-141.90;100.00
5298;BME280;14738;42.668;23.250;2024-02-26T03:36:22;48428.03;;;-141.90;100.00
5298;BME280;14738;42.668;23.250;2024-02-26T03:38:54;48406.19;;;-141.90;100.00
5298;BME280;14738;42.668;23.250;2024-02-26T03:41:28;48449.84;;;-141.90;100.00
5298;BME280;14738;42.668;23.250;2024-02-26T03:43:54;48404.19;;;-141.90;100.00
5298;BME280;14738;42.668;23.250;2024-02-26T03:46:31;48418.09;;;-141.90;100.00
5298;BME280;14738;42.668;23.250;2024-02-26T03:48:57;48420.09;;;-141.90;100.00
5298;BME280;14738;42.668;23.250;2024-02-26T03:51:25;48433.97;;;-141.90;100.00
5298;BME280;14738;42.668;23.250;2024-02-26T03:53:58;48424.06;;;-141.90;100.00
5298;BME280;14738;42.668;23.250;2024-02-26T03:56:43;48414.13;;;-141.90;100.00
5298;BME280;14738;42.668;23.250;2024-02-26T03:59:09;48435.97;;;-141.90;100.00
5298;BME280;14738;42.668;23.250;2024-02-26T04:01:46;48445.88;;;-141.90;100.00
5298;BME280;14738;42.668;23.250;2024-02-26T04:04:14;48414.13;;;-141.90;100.00
5298;BME280;14738;42.668;23.250;2024-02-26T04:06:44;48435.97;;;-141.90;100.00
5298;BME280;14738;42.668;23.250;2024-02-26T04:09:09;48414.13;;;-141.90;100.00
5298;BME280;14738;42.668;23.250;2024-02-26T04:11:35;48414.13;;;-141.90;100.00
5298;BME280;14738;42.668;23.250;2024-02-26T04:14:01;48398.25;;;-141.90;100.00
5298;BME280;14738;42.668;23.250;2024-02-26T04:16:26;48433.97;;;-141.90;100.00
5298;BME280;14738;42.668;23.250;2024-02-26T04:18:51;48432.00;;;-141.90;100.00
5298;BME280;14738;42.668;23.250;2024-02-26T04:21:18;48418.09;;;-141.90;100.00
5298;BME280;14738;42.668;23.250;2024-02-26T04:23:44;48441.91;;;-141.90;100.00
5298;BME280;14738;42.668;23.250;2024-02-26T04:26:09;48463.75;;;-141.90;100.00
5298;BME280;14738;42.668;23.250;2024-02-26T04:28:34;48437.94;;;-141.90;100.00
5298;BME280;14738;42.668;23.250;2024-02-26T04:31:01;48418.09;;;-141.90;100.00
5298;BME280;14738;42.668;23.250;2024-02-26T04:33:27;48410.16;;;-141.90;100.00
5298;BME280;14738;42.668;23.250;2024-02-26T04:35:52;48420.09;;;-141.90;100.00
5298;BME280;14738;42.668;23.250;2024-02-26T04:38:18;48424.06;;;-141.90;100.00
5298;BME280;14738;42.668;23.250;2024-02-26T04:40:43;48430.00;;;-141.90;100.00
5298;BME280;14738;42.668;23.250;2024-02-26T04:43:09;48447.88;;;-141.90;100.00
5298;BME280;14738;42.668;23.250;2024-02-26T04:45:34;48437.94;;;-141.90;100.00
5298;BME280;14738;42.668;23.250;2024-02-26T04:48:00;48416.09;;;-141.90;100.00
5298;BME280;14738;42.668;23.250;2024-02-26T04:50:25;48433.97;;;-141.90;100.00
5298;BME280;14738;42.668;23.250;2024-02-26T04:52:51;48439.94;;;-141.90;100.00
5298;BME280;14738;42.668;23.250;2024-02-26T04:55:16;48412.13;;;-141.90;100.00
5298;BME280;14738;42.668;23.250;2024-02-26T04:57:42;48414.13;;;-141.90;100.00
5298;BME280;14738;42.668;23.250;2024-02-26T05:00:08;48424.06;;;-141.90;100.00
5298;BME280;14738;42.668;23.250;2024-02-26T05:02:35;48449.84;;;-141.90;100.00
5298;BME280;14738;42.668;23.250;2024-02-26T05:05:04;48463.75;;;-141.90;100.00
5298;BME280;14738;42.668;23.250;2024-02-26T05:07:30;48433.97;;;-141.90;100.00
5298;BME280;14738;42.668;23.250;2024-02-26T05:09:55;48443.91;;;-141.90;100.00
5298;BME280;14738;42.668;23.250;2024-02-26T05:12:21;48402.22;;;-141.90;100.00
5298;BME280;14738;42.668;23.250;2024-02-26T05:14:46;48398.25;;;-141.90;100.00
5298;BME280;14738;42.668;23.250;2024-02-26T05:17:12;48449.84;;;-141.90;100.00
5298;BME280;14738;42.668;23.250;2024-02-26T05:19:40;48441.91;;;-141.90;100.00
5298;BME280;14738;42.668;23.250;2024-02-26T05:22:05;48439.94;;;-141.90;100.00
5298;BME280;14738;42.668;23.250;2024-02-26T05:24:31;48441.91;;;-141.90;100.00
5298;BME280;14738;42.668;23.250;2024-02-26T05:26:56;48422.06;;;-141.90;100.00
5298;BME280;14738;42.668;23.250;2024-02-26T05:29:22;48437.94;;;-141.90;100.00
5298;BME280;14738;42.668;23.250;2024-02-26T05:31:47;48445.88;;;-141.90;100.00
5298;BME280;14738;42.668;23.250;2024-02-26T05:34:13;48467.72;;;-141.90;100.00
5298;BME280;14738;42.668;23.250;2024-02-26T05:36:38;48430.00;;;-141.90;100.00
5298;BME280;14738;42.668;23.250;2024-02-26T05:39:04;48422.06;;;-141.90;100.00
5298;BME280;14738;42.668;23.250;2024-02-26T05:41:30;48449.84;;;-141.90;100.00
5298;BME280;14738;42.668;23.250;2024-02-26T05:43:58;48424.06;;;-141.90;100.00
5298;BME280;14738;42.668;23.250;2024-02-26T05:46:24;48439.94;;;-141.90;100.00
5298;BME280;14738;42.668;23.250;2024-02-26T05:48:51;48416.09;;;-141.90;100.00
5298;BME280;14738;42.668;23.250;2024-02-26T05:51:18;48412.13;;;-141.90;100.00
5298;BME280;14738;42.668;23.250;2024-02-26T05:53:44;48404.19;;;-141.90;100.00
5298;BME280;14738;42.668;23.250;2024-02-26T05:56:09;48441.91;;;-141.90;100.00
5298;BME280;14738;42.668;23.250;2024-02-26T05:58:35;48430.00;;;-141.90;100.00
5298;BME280;14738;42.668;23.250;2024-02-26T06:01:00;48416.09;;;-141.90;100.00
5298;BME280;14738;42.668;23.250;2024-02-26T06:03:26;48422.06;;;-141.90;100.00
5298;BME280;14738;42.668;23.250;2024-02-26T06:05:52;48443.91;;;-141.90;100.00
5298;BME280;14738;42.668;23.250;2024-02-26T06:08:18;48433.97;;;-141.90;100.00
5298;BME280;14738;42.668;23.250;2024-02-26T06:10:43;48418.09;;;-141.90;100.00
5298;BME280;14738;42.668;23.250;2024-02-26T06:13:09;48426.03;;;-141.90;100.00
5298;BME280;14738;42.668;23.250;2024-02-26T06:15:34;48430.00;;;-141.90;100.00
5298;BME280;14738;42.668;23.250;2024-02-26T06:18:00;48457.81;;;-141.90;100.00
5298;BME280;14738;42.668;23.250;2024-02-26T06:20:25;48398.25;;;-141.90;100.00
5298;BME280;14738;42.668;23.250;2024-02-26T06:22:51;48433.97;;;-141.90;100.00
5298;BME280;14738;42.668;23.250;2024-02-26T06:25:16;48406.19;;;-141.90;100.00
5298;BME280;14738;42.668;23.250;2024-02-26T06:27:42;48418.09;;;-141.90;100.00
5298;BME280;14738;42.668;23.250;2024-02-26T06:30:07;48410.16;;;-141.90;100.00
5298;BME280;14738;42.668;23.250;2024-02-26T06:32:36;48416.09;;;-141.90;100.00
5298;BME280;14738;42.668;23.250;2024-02-26T06:35:01;48402.22;;;-141.90;100.00
5298;BME280;14738;42.668;23.250;2024-02-26T06:37:29;48410.16;;;-141.90;100.00
5298;BME280;14738;42.668;23.250;2024-02-26T06:39:55;48402.22;;;-141.90;100.00
5298;BME280;14738;42.668;23.250;2024-02-26T06:42:20;48418.09;;;-141.90;100.00
5298;BME280;14738;42.668;23.250;2024-02-26T06:44:45;48449.84;;;-141.90;100.00
5298;BME280;14738;42.668;23.250;2024-02-26T06:47:11;48437.94;;;-141.90;100.00
5298;BME280;14738;42.668;23.250;2024-02-26T06:49:37;48426.03;;;-141.90;100.00
5298;BME280;14738;42.668;23.250;2024-02-26T06:52:03;48412.13;;;-141.90;100.00
5298;BME280;14738;42.668;23.250;2024-02-26T06:54:29;48430.00;;;-141.90;100.00
5298;BME280;14738;42.668;23.250;2024-02-26T06:56:55;48394.28;;;-141.90;100.00
5298;BME280;14738;42.668;23.250;2024-02-26T06:59:20;48430.00;;;-141.90;100.00
5298;BME280;14738;42.668;23.250;2024-02-26T07:01:46;48380.38;;;-141.90;100.00
5298;BME280;14738;42.668;23.250;2024-02-26T07:04:11;48430.00;;;-141.90;100.00
5298;BME280;14738;42.668;23.250;2024-02-26T07:06:37;48433.97;;;-141.90;100.00
5298;BME280;14738;42.668;23.250;2024-02-26T07:09:03;48445.88;;;-141.90;100.00
5298;BME280;14738;42.668;23.250;2024-02-26T07:11:28;48433.97;;;-141.90;100.00
5298;BME280;14738;42.668;23.250;2024-02-26T07:13:53;48435.97;;;-141.90;100.00
5298;BME280;14738;42.668;23.250;2024-02-26T07:16:19;48430.00;;;-141.90;100.00
5298;BME280;14738;42.668;23.250;2024-02-26T07:18:44;48402.22;;;-141.90;100.00
5298;BME280;14738;42.668;23.250;2024-02-26T07:21:11;48418.09;;;-141.90;100.00
5298;BME280;14738;42.668;23.250;2024-02-26T07:23:37;48406.19;;;-141.90;100.00
5298;BME280;14738;42.668;23.250;2024-02-26T07:26:02;48445.88;;;-141.90;100.00
5298;BME280;14738;42.668;23.250;2024-02-26T07:28:28;48364.50;;;-141.90;100.00
5298;BME280;14738;42.668;23.250;2024-02-26T07:30:54;48451.84;;;-141.90;100.00
5298;BME280;14738;42.668;23.250;2024-02-26T07:33:19;48378.38;;;-141.90;100.00
5298;BME280;14738;42.668;23.250;2024-02-26T07:35:45;48356.56;;;-141.90;100.00
5298;BME280;14738;42.668;23.250;2024-02-26T07:38:10;48410.16;;;-141.90;100.00
5298;BME280;14738;42.668;23.250;2024-02-26T07:40:36;48416.09;;;-141.90;100.00
5298;BME280;14738;42.668;23.250;2024-02-26T07:43:01;48394.28;;;-141.90;100.00
5298;BME280;14738;42.668;23.250;2024-02-26T07:45:27;48398.25;;;-141.90;100.00
5298;BME280;14738;42.668;23.250;2024-02-26T07:47:55;48392.28;;;-141.90;100.00
5298;BME280;14738;42.668;23.250;2024-02-26T07:50:21;48402.22;;;-141.90;100.00
5298;BME280;14738;42.668;23.250;2024-02-26T07:52:46;48390.31;;;-141.90;100.00
5298;BME280;14738;42.668;23.250;2024-02-26T07:55:12;48356.56;;;-141.90;100.00
5298;BME280;14738;42.668;23.250;2024-02-26T07:57:37;48394.28;;;-141.90;100.00
5298;BME280;14738;42.668;23.250;2024-02-26T08:00:04;48398.25;;;-141.90;100.00
5298;BME280;14738;42.668;23.250;2024-02-26T08:02:32;48334.72;;;-141.90;100.00
5298;BME280;14738;42.668;23.250;2024-02-26T08:04:59;48426.03;;;-141.90;100.00
5298;BME280;14738;42.668;23.250;2024-02-26T08:07:24;48360.53;;;-141.90;100.00
5298;BME280;14738;42.668;23.250;2024-02-26T08:09:50;48437.94;;;-141.90;100.00
5298;BME280;14738;42.668;23.250;2024-02-26T08:12:15;48430.00;;;-141.90;100.00
5298;BME280;14738;42.668;23.250;2024-02-26T08:14:41;48418.09;;;-141.90;100.00
5298;BME280;14738;42.668;23.250;2024-02-26T08:17:09;48408.16;;;-141.90;100.00
5298;BME280;14738;42.668;23.250;2024-02-26T08:19:34;48398.25;;;-141.90;100.00
5298;BME280;14738;42.668;23.250;2024-02-26T08:22:03;48418.09;;;-141.90;100.00
5298;BME280;14738;42.668;23.250;2024-02-26T08:24:28;48416.09;;;-141.90;100.00
5298;BME280;14738;42.668;23.250;2024-02-26T08:26:54;48402.22;;;-141.90;100.00
5298;BME280;14738;42.668;23.250;2024-02-26T08:29:20;48370.44;;;-141.90;100.00
5298;BME280;14738;42.668;23.250;2024-02-26T08:31:45;48396.25;;;-141.90;100.00
5298;BME280;14738;42.668;23.250;2024-02-26T08:34:11;48414.13;;;-141.90;100.00
5298;BME280;14738;42.668;23.250;2024-02-26T08:36:36;48390.31;;;-141.90;100.00
5298;BME280;14738;42.668;23.250;2024-02-26T08:39:02;48400.22;;;-141.90;100.00
5298;BME280;14738;42.668;23.250;2024-02-26T08:41:28;48430.00;;;-141.90;100.00
5298;BME280;14738;42.668;23.250;2024-02-26T08:43:53;48402.22;;;-141.90;100.00
5298;BME280;14738;42.668;23.250;2024-02-26T08:46:20;48422.06;;;-141.90;100.00
5298;BME280;14738;42.668;23.250;2024-02-26T08:48:45;48414.13;;;-141.90;100.00
5298;BME280;14738;42.668;23.250;2024-02-26T08:51:11;48402.22;;;-141.90;100.00
5298;BME280;14738;42.668;23.250;2024-02-26T08:53:38;48422.06;;;-141.90;100.00
5298;BME280;14738;42.668;23.250;2024-02-26T08:56:04;48400.22;;;-141.90;100.00
5298;BME280;14738;42.668;23.250;2024-02-26T08:58:30;48396.25;;;-141.90;100.00
5298;BME280;14738;42.668;23.250;2024-02-26T09:00:55;48386.34;;;-141.90;100.00
5298;BME280;14738;42.668;23.250;2024-02-26T09:03:21;48404.19;;;-141.90;100.00
5298;BME280;14738;42.668;23.250;2024-02-26T09:05:47;48402.22;;;-141.90;100.00
5298;BME280;14738;42.668;23.250;2024-02-26T09:08:13;48386.34;;;-141.90;100.00
5298;BME280;14738;42.668;23.250;2024-02-26T09:10:39;48366.47;;;-141.90;100.00
5298;BME280;14738;42.668;23.250;2024-02-26T09:13:04;48418.09;;;-141.90;100.00
5298;BME280;14738;42.668;23.250;2024-02-26T09:15:32;48416.09;;;-141.90;100.00
5298;BME280;14738;42.668;23.250;2024-02-26T09:17:58;48416.09;;;-141.90;100.00
5298;BME280;14738;42.668;23.250;2024-02-26T09:20:26;48406.19;;;-141.90;100.00
5298;BME280;14738;42.668;23.250;2024-02-26T09:22:52;48414.13;;;-141.90;100.00
5298;BME280;14738;42.668;23.250;2024-02-26T09:25:18;48428.03;;;-141.90;100.00
5298;BME280;14738;42.668;23.250;2024-02-26T09:27:44;48390.31;;;-141.90;100.00
5298;BME280;14738;42.668;23.250;2024-02-26T09:30:13;48392.28;;;-141.90;100.00
5298;BME280;14738;42.668;23.250;2024-02-26T09:32:39;48422.06;;;-141.90;100.00
5298;BME280;14738;42.668;23.250;2024-02-26T09:35:06;48388.31;;;-141.90;100.00
5298;BME280;14738;42.668;23.250;2024-02-26T09:37:32;48386.34;;;-141.90;100.00
5298;BME280;14738;42.668;23.250;2024-02-26T09:39:58;48402.22;;;-141.90;100.00
5298;BME280;14738;42.668;23.250;2024-02-26T09:42:25;48400.22;;;-141.90;100.00
5298;BME280;14738;42.668;23.250;2024-02-26T09:44:53;48394.28;;;-141.90;100.00
5298;BME280;14738;42.668;23.250;2024-02-26T09:47:23;48418.09;;;-141.90;100.00
5298;BME280;14738;42.668;23.250;2024-02-26T09:49:53;48430.00;;;-141.90;100.00
5298;BME280;14738;42.668;23.250;2024-02-26T09:52:19;48443.91;;;-141.90;100.00
5298;BME280;14738;42.668;23.250;2024-02-26T09:54:48;48410.16;;;-141.90;100.00
5298;BME280;14738;42.668;23.250;2024-02-26T09:57:15;48394.28;;;-141.90;100.00
5298;BME280;14738;42.668;23.250;2024-02-26T09:59:42;48449.84;;;-141.90;47.18
5298;BME280;14738;42.668;23.250;2024-02-26T10:02:13;48449.84;;;-141.90;46.14
5298;BME280;14738;42.668;23.250;2024-02-26T10:04:42;48406.19;;;-141.90;45.80
5298;BME280;14738;42.668;23.250;2024-02-26T10:07:12;48398.25;;;-141.90;44.84
5298;BME280;14738;42.668;23.250;2024-02-26T10:09:38;48428.03;;;-141.90;45.25
5298;BME280;14738;42.668;23.250;2024-02-26T10:12:05;48418.09;;;-141.90;45.01
5298;BME280;14738;42.668;23.250;2024-02-26T10:14:32;48402.22;;;-141.90;44.82
5298;BME280;14738;42.668;23.250;2024-02-26T10:16:58;48364.50;;;-141.90;44.91
5298;BME280;14738;42.668;23.250;2024-02-26T10:19:28;48406.19;;;-141.90;44.32
5298;BME280;14738;42.668;23.250;2024-02-26T10:21:58;48402.22;;;-141.90;43.96
5298;BME280;14738;42.668;23.250;2024-02-26T10:24:25;48418.09;;;-141.90;44.30
5298;BME280;14738;42.668;23.250;2024-02-26T10:26:52;48406.19;;;-141.90;43.70
5298;BME280;14738;42.668;23.250;2024-02-26T10:29:21;48394.28;;;-141.90;43.33
5298;BME280;14738;42.668;23.250;2024-02-26T10:31:50;48402.22;;;-141.90;43.70
5298;BME280;14738;42.668;23.250;2024-02-26T10:34:16;48408.16;;;-141.90;43.73
5298;BME280;14738;42.668;23.250;2024-02-26T10:36:42;48382.34;;;-141.90;43.15
5298;BME280;14738;42.668;23.250;2024-02-26T10:39:07;48374.41;;;-141.90;43.15
5298;BME280;14738;42.668;23.250;2024-02-26T10:41:33;48410.16;;;-141.90;42.65
5298;BME280;14738;42.668;23.250;2024-02-26T10:43:59;48433.97;;;-141.90;42.67
5298;BME280;14738;42.668;23.250;2024-02-26T10:46:25;48410.16;;;-141.90;42.69
5298;BME280;14738;42.668;23.250;2024-02-26T10:48:52;48410.16;;;-141.90;43.32
5298;BME280;14738;42.668;23.250;2024-02-26T10:51:26;48404.19;;;-141.90;42.89
5298;BME280;14738;42.668;23.250;2024-02-26T10:53:55;48420.09;;;-141.90;41.89
5298;BME280;14738;42.668;23.250;2024-02-26T10:56:25;48437.94;;;-141.90;42.37
5298;BME280;14738;42.668;23.250;2024-02-26T10:58:53;48414.13;;;-141.90;42.56
5298;BME280;14738;42.668;23.250;2024-02-26T11:01:18;48418.09;;;-141.90;42.26
5298;BME280;14738;42.668;23.250;2024-02-26T11:03:45;48402.22;;;-141.90;42.33
5298;BME280;14738;42.668;23.250;2024-02-26T11:06:12;48416.09;;;-141.90;42.71
5298;BME280;14738;42.668;23.250;2024-02-26T11:08:38;48418.09;;;-141.90;42.01
5298;BME280;14738;42.668;23.250;2024-02-26T11:11:04;48432.00;;;-141.90;41.86
5298;BME280;14738;42.668;23.250;2024-02-26T11:13:30;48352.59;;;-141.90;42.43
5298;BME280;14738;42.668;23.250;2024-02-26T11:15:56;48433.97;;;-141.90;42.23
5298;BME280;14738;42.668;23.250;2024-02-26T11:18:23;48422.06;;;-141.90;42.25
5298;BME280;14738;42.668;23.250;2024-02-26T11:20:51;48424.06;;;-141.90;42.01
5298;BME280;14738;42.668;23.250;2024-02-26T11:23:20;48372.44;;;-141.90;41.68
5298;BME280;14738;42.668;23.250;2024-02-26T11:25:45;48441.91;;;-141.90;42.11
5298;BME280;14738;42.668;23.250;2024-02-26T11:28:15;48402.22;;;-141.90;41.73
5298;BME280;14738;42.668;23.250;2024-02-26T11:30:47;48410.16;;;-141.90;41.56
5298;BME280;14738;42.668;23.250;2024-02-26T11:33:14;48386.34;;;-141.90;41.79
5298;BME280;14738;42.668;23.250;2024-02-26T11:35:40;48342.66;;;-141.90;41.58
5298;BME280;14738;42.668;23.250;2024-02-26T11:38:06;48424.06;;;-141.90;41.74
5298;BME280;14738;42.668;23.250;2024-02-26T11:40:37;48439.94;;;-141.90;41.70
5298;BME280;14738;42.668;23.250;2024-02-26T11:43:04;48410.16;;;-141.90;42.01
5298;BME280;14738;42.668;23.250;2024-02-26T11:48:14;48390.31;;;-141.90;41.45
5298;BME280;14738;42.668;23.250;2024-02-26T11:50:47;48390.31;;;-141.90;41.39
5298;BME280;14738;42.668;23.250;2024-02-26T11:53:22;48402.22;;;-141.90;41.62
5298;BME280;14738;42.668;23.250;2024-02-26T11:56:11;48386.34;;;-141.90;40.93
5298;BME280;14738;42.668;23.250;2024-02-26T11:58:34;48366.47;;;-141.90;41.81
5298;BME280;14738;42.668;23.250;2024-02-26T12:00:59;48410.16;;;-141.90;41.20
5298;BME280;14738;42.668;23.250;2024-02-26T12:03:28;48394.28;;;-141.90;40.95
5298;BME280;14738;42.668;23.250;2024-02-26T12:05:54;48433.97;;;-141.90;40.89
5298;BME280;14738;42.668;23.250;2024-02-26T12:08:21;48437.94;;;-141.90;40.28
5298;BME280;14738;42.668;23.250;2024-02-26T12:10:48;48406.19;;;-141.90;40.39
5298;BME280;14738;42.668;23.250;2024-02-26T12:13:17;48408.16;;;-141.90;39.54
5298;BME280;14738;42.668;23.250;2024-02-26T12:15:55;48414.13;;;-141.90;38.58
5298;BME280;14738;42.668;23.250;2024-02-26T12:18:22;48380.38;;;-141.90;39.19
5298;BME280;14738;42.668;23.250;2024-02-26T12:21:01;48358.53;;;-141.90;39.62
5298;BME280;14738;42.668;23.250;2024-02-26T12:23:26;48418.09;;;-141.90;38.95
5298;BME280;14738;42.668;23.250;2024-02-26T12:25:53;48408.16;;;-141.90;38.99
5298;BME280;14738;42.668;23.250;2024-02-26T12:28:19;48346.63;;;-141.90;39.14
5298;BME280;14738;42.668;23.250;2024-02-26T12:30:44;48426.03;;;-141.90;39.46
5298;BME280;14738;42.668;23.250;2024-02-26T12:33:11;48439.94;;;-141.90;39.04
5298;BME280;14738;42.668;23.250;2024-02-26T12:35:36;48394.28;;;-141.90;38.02
5298;BME280;14738;42.668;23.250;2024-02-26T12:38:03;48394.28;;;-141.90;39.22